PKWA TAF

83.7 °F / 28.7 °C
ENE at 13 MPH
75%
75.0°F / 23.9 °C
29.82" (1009 mb)
10 mile(s)
partly cloudy
2024.02.24 0240 UTC

PKWA TAF

2024/02/23 18:27
TAF PKWA 231723Z 2318/2418 07016KT P6SM VCSH SCT018 SCT040